RJNS(METAR)
10/20 21:00
METAR RJNS 201200Z 35005KT 9999 FEW030 14/11 Q1024 RMK 1CU030 A3026=
戻る
トップページへ戻る
IMOC Co,.Ltd.